CheckWX is a tool to help pilots better visualize weather data.  It is not intended as a substitute for an official pre-flight weather briefing.

22:43:47 UTC

LIRP METAR
Pisa International Airport
Pisa, Italy
Current

29 mins ago

LIRP 202215Z VRB01KT CAVOK 21/20 Q1020 NOSIG
Observed
Jul-20 @ 22:15 UTC
Wind
  • Variable at 1 KTS
Visibility
10,000+ meters
Flight Rules
VFR
Cloud Levels
  • Clear skies
Temperature
21°C / 70°F
Dewpoint
20°C / 68°F
Humidity
94%
Altimeter
30.12" Hg
Pressure
1019.92 hPa
Previous

59 mins ago

LIRP 202145Z VRB01KT CAVOK 21/20 Q1020 NOSIG
Observed
Jul-20 @ 21:45 UTC
Wind
  • Variable at 1 KTS
Visibility
10,000+ meters
Flight Rules
VFR
Cloud Levels
  • Clear skies
Temperature
21°C / 70°F
Dewpoint
20°C / 68°F
Humidity
94%
Altimeter
30.12" Hg
Pressure
1019.92 hPa
Previous

1 hour ago

LIRP 202115Z VRB01KT CAVOK 22/21 Q1020 NOSIG
Observed
Jul-20 @ 21:15 UTC
Wind
  • Variable at 1 KTS
Visibility
10,000+ meters
Flight Rules
VFR
Cloud Levels
  • Clear skies
Temperature
22°C / 72°F
Dewpoint
21°C / 70°F
Humidity
94%
Altimeter
30.12" Hg
Pressure
1019.92 hPa